Accueil
METAR-TAF:

METAR-TAF

Aéroports :

Berne, Suisse

Aéroport international de Berne

latitude: 46-55N, longitude: 007-30E, altitude: 505 m

Observation

Le bulletin a été fait il y a 15 minutes, à 01:50 UTC
Vent 5 kt de est, variant entre nord/nord-est et sud/sud-est
Température 1°C
Humidité 100%
Pression 988 hPa
Visibilité: 3700 m
Quelques nuages à une hauteur de 300 ft
Nuages épars à une hauteur de 19000 ft
brume

METAR: LSZB 110150Z AUTO 09005KT 030V150 3700 BR FEW003 SCT190 01/01 Q0988

Heure: 03:05 (02:05 UTC)

Prévision

Le bulletin a été fait il y a 6 heures et 31 minutes, à 19:34 UTC
Prévision valable du 10 à 19 UTC au 10 à 24 UTC
Vent 5 kt de est
Visibilité: 8000 m
Quelques nuages à une hauteur de 1000 ft
Nuages fragmentés à une hauteur de 5000 ft
Temporairement
du 10 à 19 UTC au 10 à 24 UTC

TAF: LSZB 101934Z 1019/1024 09005KT 8000 FEW010 BKN050 TEMPO 1019/1024 4000-SN

Observations et prévisions météorologiques de plus de 4000 aéroports (messages METAR et TAF).

Les stations disponibles sont représentées par des disques jaunes et rouges sur la carte.

Passer la souris dessus pour voir le nom de la station.

Cliquer dessus pour voir les observations et prévisions météorologiques.

Pour changer de carte: cliquez sur les boutons verts avec une croix noire pour zoomer, sur le bouton vert avec un tiret pour effectuer un zoom arrière, ou sur les flèches vertes pour les cartes adjacentes.


METAR-TAF: